Impacts TAF Board INFO
FOR SITUATIONAL AWARENESS. NOT TO BE USED FOR FLIGHT PLANNING PURPOSES.
IDs:

KSEA - Seattle-Tacoma Intl, WA, US

Issued at 1404 UTC 23 Jan 2018
Updated at 1405 UTC 23 Jan 2018
Potential Impact None Slight Moderate High
Time<<24/03Z 24/04Z 24/05Z 24/06Z 24/07Z 24/08Z 24/09Z 24/10Z 24/11Z 24/12Z 24/13Z 24/14Z 24/15Z>>
Type PRVL PRVL PRVL PRVL PRVL PRVL PRVL PRVL PRVL PRVL PRVL PRVL PRVL
VIS >6 >6 >6 >6 >6 >6 >6 >6 >6 >6 >6 >6 >6
CIG 35 35 35 35 35 20 20 20 20 20 20 20 20
Cover OVC OVC OVC OVC OVC OVC OVC OVC OVC OVC OVC OVC OVC
FltCat VFR VFR VFR VFR VFR MVFR MVFR MVFR MVFR MVFR MVFR MVFR MVFR
WX -RA -RA -RA -RA -RA -RA -RA -RA -RA -RA -RA -RA -RA
WDir 160 160 160 160 160 160 160 160 160 160 160 160 160
WSpd 9 9 9 9 9 10 10 10 10 10 10 10 10
WGst -- -- -- -- -- -- -- -- -- -- -- -- --

Raw TAF
KSEA 231404Z 2314/2418 12009KT P6SM BKN080 OVC100
  FM231700 13011KT 6SM -RA BR SCT018 OVC025 WS020/19040KT
  FM240300 16009KT P6SM -RA SCT025 OVC035
  FM240800 16010KT P6SM -RA OVC020


METAR Board
Radar Display
Forecast Discussion

FOR SITUATIONAL AWARENESS. NOT TO BE USED FOR FLIGHT PLANNING PURPOSES.